Time;durP1;ratioP1;P1;durP2;ratioP2;P2;SDS_P1;SDS_P2;PMS_P1;PMS_P2;Temp;Humidity;BMP_temperature;BMP_pressure;BME280_temperature;BME280_humidity;BME280_pressure;Samples;Min_cycle;Max_cycle;Signal;HPM_P1;HPM_P2
2022/06/22 00:00:45;;;;;;;4.85;3.20;;;13.10;99.90;;;;;;5038635;28;20507;-72
2022/06/22 00:03:12;;;;;;;9.07;3.20;;;12.80;99.90;;;;;;5038914;28;20053;-73
2022/06/22 00:05:49;;;;;;;5.00;3.22;;;12.70;99.90;;;;;;5038561;28;20033;-73
2022/06/22 00:08:27;;;;;;;7.85;3.33;;;12.70;99.90;;;;;;5038292;28;20080;-72
2022/06/22 00:10:54;;;;;;;7.88;3.55;;;12.70;99.90;;;;;;5054815;28;20088;-73
2022/06/22 00:13:23;;;;;;;6.65;3.63;;;12.60;99.90;;;;;;5038386;28;20504;-73
2022/06/22 00:15:52;;;;;;;6.75;3.85;;;12.60;99.90;;;;;;5054708;28;20127;-72
2022/06/22 00:18:34;;;;;;;5.57;3.10;;;12.50;99.90;;;;;;5037969;28;20048;-72
2022/06/22 00:21:05;;;;;;;5.70;3.55;;;12.50;99.90;;;;;;5054668;28;20041;-72
2022/06/22 00:23:38;;;;;;;5.57;3.13;;;12.40;99.90;;;;;;5054610;28;20037;-72
2022/06/22 00:26:23;;;;;;;4.45;3.20;;;12.40;99.90;;;;;;5054539;28;20048;-72
2022/06/22 00:29:02;;;;;;;8.32;3.50;;;12.40;99.90;;;;;;5037794;28;20037;-73
2022/06/22 00:31:38;;;;;;;8.40;3.97;;;12.40;99.90;;;;;;5037944;28;20041;-72
2022/06/22 00:34:10;;;;;;;6.25;3.72;;;12.30;99.90;;;;;;5054407;28;20068;-72
2022/06/22 00:37:00;;;;;;;6.45;3.58;;;12.80;99.90;;;;;;5037570;28;20064;-73
2022/06/22 00:39:29;;;;;;;4.90;3.30;;;12.20;99.90;;;;;;5054317;28;20053;-72
2022/06/22 00:42:15;;;;;;;4.13;2.95;;;12.30;99.90;;;;;;5037763;28;20037;-72
2022/06/22 00:44:46;;;;;;;4.63;3.28;;;12.20;99.90;;;;;;5054442;28;20507;-73
2022/06/22 00:47:26;;;;;;;6.50;3.40;;;12.10;99.90;;;;;;5054221;28;20127;-73
2022/06/22 00:50:00;;;;;;;5.85;3.33;;;12.10;99.90;;;;;;5054361;28;20548;-73
2022/06/22 00:52:42;;;;;;;4.32;3.22;;;12.00;99.90;;;;;;5054424;28;20045;-73
2022/06/22 00:55:40;;;;;;;5.00;3.40;;;12.00;99.90;;;;;;5037368;28;20049;-73
2022/06/22 00:58:37;;;;;;;7.68;3.47;;;12.00;99.90;;;;;;5037326;28;20048;-73
2022/06/22 01:01:19;;;;;;;6.43;4.05;;;11.90;99.90;;;;;;5053148;28;20068;-73
2022/06/22 01:04:02;;;;;;;6.75;3.70;;;11.90;99.90;;;;;;5037193;28;20041;-73
2022/06/22 01:06:39;;;;;;;6.80;3.78;;;11.80;99.90;;;;;;5052735;28;20129;-73
2022/06/22 01:09:18;;;;;;;6.45;4.13;;;11.80;99.90;;;;;;5053957;28;20040;-72
2022/06/22 01:12:18;;;;;;;5.68;3.55;;;11.70;99.90;;;;;;5053942;28;20503;-74
2022/06/22 01:15:02;;;;;;;5.88;3.15;;;11.60;99.90;;;;;;5046000;28;20385;-72
2022/06/22 01:17:47;;;;;;;7.55;4.50;;;11.60;99.90;;;;;;5037017;28;20045;-73
2022/06/22 01:20:45;;;;;;;7.25;4.18;;;11.60;99.90;;;;;;5037170;28;20151;-73
2022/06/22 01:23:14;;;;;;;9.15;4.50;;;11.50;99.90;;;;;;5037003;28;20540;-73
2022/06/22 01:25:56;;;;;;;6.32;3.90;;;11.50;99.90;;;;;;5053629;28;20435;-73
2022/06/22 01:28:24;;;;;;;7.15;3.60;;;11.50;99.90;;;;;;5053429;28;20053;-73
2022/06/22 01:31:13;;;;;;;9.40;3.78;;;11.50;99.90;;;;;;5036969;28;20041;-73
2022/06/22 01:33:45;;;;;;;6.15;3.55;;;11.40;99.90;;;;;;5028183;28;20518;-73
2022/06/22 01:36:32;;;;;;;5.82;3.42;;;11.40;99.90;;;;;;5036489;28;20120;-73
2022/06/22 01:38:58;;;;;;;6.47;4.05;;;11.30;99.90;;;;;;5052975;28;20132;-73
2022/06/22 01:41:37;;;;;;;9.23;4.90;;;11.30;99.90;;;;;;5020285;28;20059;-73
2022/06/22 01:44:13;;;;;;;7.55;3.80;;;11.30;99.90;;;;;;5053311;28;20041;-73
2022/06/22 01:46:41;;;;;;;8.40;4.38;;;11.30;99.90;;;;;;5036296;28;20041;-73
2022/06/22 01:49:13;;;;;;;9.02;4.28;;;11.40;99.90;;;;;;5052916;28;20041;-73
2022/06/22 01:51:46;;;;;;;7.93;4.43;;;11.80;99.90;;;;;;5052889;28;20116;-73
2022/06/22 01:54:25;;;;;;;8.02;3.60;;;11.20;99.90;;;;;;5052836;28;20083;-73
2022/06/22 01:57:00;;;;;;;6.50;3.78;;;11.20;99.90;;;;;;5036306;28;20546;-73
2022/06/22 01:59:56;;;;;;;8.15;3.70;;;11.20;99.90;;;;;;5036182;28;20045;-73
2022/06/22 02:02:41;;;;;;;7.88;4.05;;;11.10;99.90;;;;;;5015060;28;20511;-73
2022/06/22 02:05:28;;;;;;;6.88;3.65;;;11.10;99.90;;;;;;5036051;28;20044;-73
2022/06/22 02:08:08;;;;;;;5.07;3.55;;;11.10;99.90;;;;;;5052591;28;20041;-73
2022/06/22 02:10:52;;;;;;;7.70;3.78;;;11.00;99.90;;;;;;5036016;28;20049;-73
2022/06/22 02:13:28;;;;;;;6.93;3.45;;;11.00;99.90;;;;;;5035849;28;20045;-73
2022/06/22 02:15:59;;;;;;;6.18;3.38;;;11.00;99.90;;;;;;5035901;28;20075;-73
2022/06/22 02:18:33;;;;;;;5.30;2.88;;;11.00;99.90;;;;;;5035544;28;20404;-73
2022/06/22 02:21:10;;;;;;;8.30;3.55;;;10.90;99.90;;;;;;5052306;28;20037;-73
2022/06/22 02:23:36;;;;;;;5.55;3.50;;;10.90;99.90;;;;;;5052308;28;20048;-73
2022/06/22 02:26:22;;;;;;;4.35;2.95;;;10.90;99.90;;;;;;5035684;28;20033;-73
2022/06/22 02:28:49;;;;;;;5.78;3.22;;;10.90;99.90;;;;;;5052148;28;20045;-73
2022/06/22 02:31:17;;;;;;;6.32;3.05;;;10.80;99.90;;;;;;5035495;28;20045;-73
2022/06/22 02:33:46;;;;;;;5.97;3.28;;;10.70;99.90;;;;;;5052358;28;20397;-73
2022/06/22 02:36:13;;;;;;;5.18;3.25;;;10.70;99.90;;;;;;5035322;28;20045;-73
2022/06/22 02:38:41;;;;;;;5.95;3.58;;;10.70;99.90;;;;;;5051956;28;20488;-73
2022/06/22 02:46:39;;;;;;;4.70;3.25;;;10.60;99.90;;;;;;5051936;28;20052;-73
2022/06/22 02:49:33;;;;;;;5.57;2.95;;;10.60;99.90;;;;;;5051940;28;20037;-73
2022/06/22 02:51:59;;;;;;;6.10;2.88;;;10.60;99.90;;;;;;5048664;28;20098;-73
2022/06/22 02:54:32;;;;;;;6.80;3.80;;;10.60;99.90;;;;;;5035159;28;20040;-73
2022/06/22 02:57:28;;;;;;;6.85;4.00;;;10.50;99.90;;;;;;5035054;28;20037;-73
2022/06/22 02:59:55;;;;;;;7.20;3.78;;;10.60;99.90;;;;;;5035162;28;20048;-73
2022/06/22 03:02:23;;;;;;;4.30;3.25;;;10.50;99.90;;;;;;5035115;28;20045;-73
2022/06/22 03:04:50;;;;;;;4.53;3.15;;;10.60;99.90;;;;;;5051565;28;20090;-72
2022/06/22 03:07:19;;;;;;;4.72;2.95;;;10.50;99.90;;;;;;5051612;28;20076;-73
2022/06/22 03:09:46;;;;;;;4.82;3.30;;;10.50;99.90;;;;;;5034985;28;20040;-73
2022/06/22 03:12:13;;;;;;;3.75;2.70;;;10.50;99.90;;;;;;5035167;28;20123;-73
2022/06/22 03:15:03;;;;;;;6.15;3.05;;;10.50;99.90;;;;;;5051410;28;20045;-73
2022/06/22 03:17:34;;;;;;;5.00;2.92;;;11.30;99.90;;;;;;5051532;28;20502;-73
2022/06/22 03:20:08;;;;;;;6.78;3.70;;;10.50;99.90;;;;;;5051762;28;20083;-73
2022/06/22 03:22:38;;;;;;;8.20;3.40;;;10.40;99.90;;;;;;5051554;28;20043;-73
2022/06/22 03:25:19;;;;;;;7.35;3.25;;;11.50;99.90;;;;;;5051703;28;20044;-73
2022/06/22 03:27:50;;;;;;;;;;;10.40;99.90;;;;;;5052102;28;20084;-73
2022/06/22 03:30:27;;;;;;;8.07;5.18;;;10.40;99.90;;;;;;5054070;28;19921;-73
2022/06/22 03:33:10;;;;;;;9.43;5.55;;;10.40;99.90;;;;;;5038896;28;20040;-73
2022/06/22 03:35:48;;;;;;;9.48;5.47;;;10.30;99.90;;;;;;5055530;28;20049;-73
2022/06/22 03:38:26;;;;;;;8.80;5.03;;;10.40;99.90;;;;;;5038976;28;20060;-73
2022/06/22 03:40:59;;;;;;;6.50;3.65;;;10.40;99.90;;;;;;5038690;28;20041;-73
2022/06/22 03:43:31;;;;;;;8.57;3.72;;;10.40;99.90;;;;;;5055611;28;20554;-73
2022/06/22 03:46:04;;;;;;;5.60;3.10;;;10.40;99.90;;;;;;5038569;28;20105;-73
2022/06/22 03:48:38;;;;;;;5.82;3.08;;;10.40;99.90;;;;;;5055229;28;20036;-73
2022/06/22 03:51:09;;;;;;;6.15;3.35;;;10.40;99.90;;;;;;5055182;28;20127;-73
2022/06/22 03:53:47;;;;;;;6.03;3.22;;;10.40;99.90;;;;;;5038568;28;20080;-73
2022/06/22 03:56:18;;;;;;;4.88;3.33;;;10.40;99.90;;;;;;5055354;28;20048;-73
2022/06/22 03:58:46;;;;;;;4.97;2.65;;;10.50;99.90;;;;;;5038666;28;20047;-73
2022/06/22 04:01:13;;;;;;;6.53;3.47;;;10.50;99.90;;;;;;5038679;28;20555;-73
2022/06/22 04:03:40;;;;;;;6.13;3.25;;;11.10;99.90;;;;;;5054971;28;20044;-73
2022/06/22 04:06:07;;;;;;;7.90;3.30;;;10.60;99.90;;;;;;5038523;28;20495;-73
2022/06/22 04:08:37;;;;;;;8.02;3.72;;;10.60;99.90;;;;;;5054791;28;20095;-73
2022/06/22 04:11:25;;;;;;;6.90;4.03;;;10.60;99.90;;;;;;5055106;28;20396;-73
2022/06/22 04:13:57;;;;;;;6.68;4.10;;;10.60;99.90;;;;;;5054992;28;20087;-73
2022/06/22 04:16:33;;;;;;;6.68;3.72;;;10.70;99.90;;;;;;5056039;28;20058;-73
2022/06/22 04:19:02;;;;;;;11.63;4.60;;;10.70;99.90;;;;;;5054602;28;20049;-74
2022/06/22 04:21:39;;;;;;;9.27;4.70;;;10.80;99.90;;;;;;5054817;28;20037;-74
2022/06/22 04:24:14;;;;;;;9.13;5.00;;;10.90;99.90;;;;;;5054582;28;20075;-73
2022/06/22 04:27:13;;;;;;;8.48;4.30;;;10.90;99.90;;;;;;5054665;28;20036;-73
2022/06/22 04:29:45;;;;;;;8.77;3.72;;;11.00;99.90;;;;;;5054427;28;20041;-73
2022/06/22 04:32:20;;;;;;;5.82;3.85;;;11.00;99.90;;;;;;5054416;28;20114;-73
2022/06/22 04:34:51;;;;;;;7.93;4.47;;;11.10;99.90;;;;;;5054249;28;20051;-73
2022/06/22 04:37:37;;;;;;;;;;;11.10;99.90;;;;;;5054571;28;20057;-73
2022/06/22 04:40:12;;;;;;;6.55;2.90;;;11.20;99.90;;;;;;5053567;28;19917;-73
2022/06/22 04:42:38;;;;;;;6.53;3.40;;;11.20;99.90;;;;;;5054510;28;20041;-73
2022/06/22 04:45:04;;;;;;;7.47;3.13;;;11.30;99.90;;;;;;5037624;28;20102;-73
2022/06/22 04:47:34;;;;;;;4.82;3.42;;;11.30;99.90;;;;;;5054446;28;20555;-74
2022/06/22 04:50:10;;;;;;;5.82;3.28;;;11.40;99.90;;;;;;5054303;28;20492;-73
2022/06/22 04:52:44;;;;;;;7.32;3.58;;;11.40;99.90;;;;;;5054323;28;20045;-74
2022/06/22 04:55:16;;;;;;;5.72;3.72;;;11.50;99.90;;;;;;5037880;28;20053;-73
2022/06/22 04:57:44;;;;;;;;;;;11.80;99.90;;;;;;5054274;28;20052;-74
2022/06/22 05:00:23;;;;;;;7.20;3.30;;;11.70;99.90;;;;;;5053927;28;19916;-74
2022/06/22 05:02:56;;;;;;;8.95;4.22;;;11.80;99.90;;;;;;5053797;28;20033;-74
2022/06/22 05:05:25;;;;;;;7.85;3.88;;;11.90;99.90;;;;;;5037193;28;20037;-74
2022/06/22 05:08:16;;;;;;;7.22;4.20;;;11.90;99.90;;;;;;5037067;28;20056;-74
2022/06/22 05:10:48;;;;;;;6.15;3.58;;;12.00;99.90;;;;;;5053698;28;20048;-74
2022/06/22 05:13:31;;;;;;;6.90;3.58;;;12.30;99.90;;;;;;5054945;28;20048;-74
2022/06/22 05:15:59;;;;;;;7.78;4.30;;;12.20;99.90;;;;;;5053881;28;20036;-74
2022/06/22 05:18:28;;;;;;;7.28;4.18;;;12.30;99.90;;;;;;5036945;28;20044;-74
2022/06/22 05:21:20;;;;;;;7.72;4.03;;;12.40;99.90;;;;;;5053763;28;20442;-73
2022/06/22 05:23:48;;;;;;;;;;;12.50;99.90;;;;;;5054169;28;20392;-74
2022/06/22 05:26:18;;;;;;;8.32;4.82;;;12.70;99.90;;;;;;5053447;28;19916;-74
2022/06/22 05:28:57;;;;;;;13.90;4.77;;;13.20;99.90;;;;;;5020890;28;20045;-74
2022/06/22 05:31:31;;;;;;;5.90;4.13;;;13.00;99.90;;;;;;5036786;28;20049;-74
2022/06/22 05:34:02;;;;;;;7.35;4.28;;;13.10;99.90;;;;;;5053203;28;20044;-73
2022/06/22 05:36:34;;;;;;;5.97;3.75;;;13.20;99.90;;;;;;5053325;28;20084;-74
2022/06/22 05:39:01;;;;;;;5.63;3.78;;;13.40;99.90;;;;;;5054353;28;20064;-80
2022/06/22 05:41:32;;;;;;;8.10;4.22;;;13.60;99.90;;;;;;5036683;28;20047;-74
2022/06/22 05:44:05;;;;;;;8.40;4.03;;;13.80;99.90;;;;;;5053227;28;20041;-74
2022/06/22 05:46:31;;;;;;;7.13;4.45;;;13.90;99.90;;;;;;5053040;28;20091;-77
2022/06/22 05:48:57;;;;;;;8.18;4.13;;;14.10;99.90;;;;;;5036749;28;20118;-73
2022/06/22 05:51:41;;;;;;;5.85;3.25;;;14.30;99.90;;;;;;5052777;28;20048;-71
2022/06/22 05:54:19;;;;;;;5.15;3.58;;;14.40;99.90;;;;;;5053261;28;20049;-74
2022/06/22 05:56:54;;;;;;;5.28;3.05;;;14.60;99.90;;;;;;5052743;28;20060;-74
2022/06/22 05:59:36;;;;;;;4.55;2.90;;;14.80;99.90;;;;;;5052740;28;20080;-75
2022/06/22 06:02:21;;;;;;;5.63;3.50;;;14.80;99.90;;;;;;5053007;28;20033;-76
2022/06/22 06:05:05;;;;;;;8.18;3.58;;;15.00;99.90;;;;;;5052671;28;20072;-79
2022/06/22 06:07:40;;;;;;;6.20;3.60;;;15.10;99.90;;;;;;5052689;28;20051;-75
2022/06/22 06:10:20;;;;;;;8.25;3.35;;;15.30;99.90;;;;;;5052703;28;20056;-75
2022/06/22 06:13:03;;;;;;;7.25;4.60;;;15.40;99.90;;;;;;5036316;28;20091;-72
2022/06/22 06:15:34;;;;;;;5.45;3.53;;;15.50;99.90;;;;;;5052331;28;20134;-74
2022/06/22 06:18:01;;;;;;;5.78;3.97;;;15.50;99.90;;;;;;5052365;28;20040;-81
2022/06/22 06:20:31;;;;;;;8.20;3.45;;;15.70;99.90;;;;;;5036479;28;20048;-85
2022/06/22 06:23:04;;;;;;;5.80;3.47;;;15.80;99.90;;;;;;5035925;28;20033;-74
2022/06/22 06:28:39;;;;;;;5.50;2.95;;;16.20;99.90;;;;;;5052235;28;20045;-73
2022/06/22 06:31:12;;;;;;;6.70;3.28;;;16.30;99.90;;;;;;5052139;28;20045;-74
2022/06/22 06:33:39;;;;;;;6.38;3.03;;;16.40;99.90;;;;;;5052061;28;20041;-74
2022/06/22 06:36:46;;;;;;;4.22;2.42;;;16.60;99.90;;;;;;5052340;28;20490;-71
2022/06/22 06:39:22;;;;;;;6.97;3.33;;;16.70;99.90;;;;;;5025845;28;20500;-74
2022/06/22 06:42:04;;;;;;;6.30;2.90;;;16.70;99.90;;;;;;5035330;28;20079;-74
2022/06/22 06:44:40;;;;;;;5.05;2.75;;;16.80;99.90;;;;;;5051882;28;20048;-74
2022/06/22 06:47:30;;;;;;;3.45;2.15;;;16.90;99.90;;;;;;5051840;28;20059;-73
2022/06/22 06:50:14;;;;;;;;;;;17.00;99.90;;;;;;5035554;28;20092;-73
2022/06/22 06:52:48;;;;;;;4.32;2.75;;;17.10;99.90;;;;;;5051742;28;19917;-72
2022/06/22 06:55:19;;;;;;;4.22;2.65;;;17.10;99.90;;;;;;5051993;28;20045;-72
2022/06/22 06:57:51;;;;;;;;;;;17.20;99.90;;;;;;5052203;28;20555;-72
2022/06/22 07:00:17;;;;;;;6.07;2.53;;;17.30;99.90;;;;;;5051585;28;19920;-71
2022/06/22 07:02:43;;;;;;;4.10;2.45;;;17.40;99.90;;;;;;5051542;28;20043;-72
2022/06/22 07:05:18;;;;;;;4.30;2.25;;;17.50;99.90;;;;;;5034243;28;20032;-72
2022/06/22 07:07:53;;;;;;;8.45;2.50;;;17.60;99.90;;;;;;5051593;28;20037;-71
2022/06/22 07:10:35;;;;;;;4.78;2.50;;;17.70;99.90;;;;;;5051641;28;20400;-71
2022/06/22 07:13:17;;;;;;;4.20;2.22;;;17.80;99.90;;;;;;5051500;28;20048;-72
2022/06/22 07:15:47;;;;;;;2.78;1.80;;;18.00;99.90;;;;;;5051446;28;20040;-72
2022/06/22 07:18:34;;;;;;;4.43;2.05;;;18.00;99.90;;;;;;5051432;28;20068;-78
2022/06/22 07:21:44;;;;;;;4.05;1.85;;;18.10;99.90;;;;;;5051706;28;20049;-73
2022/06/22 07:24:22;;;;;;;3.30;2.07;;;18.20;99.90;;;;;;4978532;28;20420;-72
2022/06/22 07:26:47;;;;;;;4.15;2.20;;;18.40;99.90;;;;;;5043691;28;20053;-72
2022/06/22 07:29:13;;;;;;;2.67;1.48;;;;;;;;;;5034741;28;20087;-72
2022/06/22 07:31:45;;;;;;;2.90;1.70;;;;;;;;;;5034839;28;20040;-73
2022/06/22 07:34:11;;;;;;;3.20;1.80;;;;;;;;;;5051644;28;20037;-72
2022/06/22 07:36:48;;;;;;;3.58;2.13;;;;;;;;;;5034516;28;20041;-73
2022/06/22 07:39:20;;;;;;;4.35;2.05;;;;;;;;;;5051564;28;20037;-73
2022/06/22 07:41:46;;;;;;;2.45;1.75;;;;;;;;;;5034579;28;20083;-73
2022/06/22 07:44:20;;;;;;;4.38;2.60;;;;;;;;;;5034653;28;20033;-73
2022/06/22 07:46:49;;;;;;;3.53;2.22;;;;;;;;;;5034497;28;20045;-72
2022/06/22 07:49:36;;;;;;;3.83;2.35;;;;;;;;;;5051395;28;20523;-73
2022/06/22 07:52:06;;;;;;;3.35;2.08;;;;;;;;;;5051086;28;20041;-73
2022/06/22 07:54:49;;;;;;;2.90;1.90;;;;;;;;;;5051466;28;20037;-73
2022/06/22 07:57:15;;;;;;;4.07;2.42;;;;;;;;;;5051258;28;20503;-73
2022/06/22 07:59:58;;;;;;;4.50;2.33;;;;;;;;;;5034444;28;20045;-73
2022/06/22 08:02:28;;;;;;;5.90;2.40;;;;;;;;;;5051040;28;20098;-73
2022/06/22 08:04:57;;;;;;;3.40;2.07;;;;;;;;;;5034462;28;20127;-73
2022/06/22 08:07:24;;;;;;;3.85;2.13;;;;;;;;;;5051361;28;20084;-73
2022/06/22 08:09:50;;;;;;;5.03;2.40;;;;;;;;;;5034650;28;20052;-73
2022/06/22 08:12:30;;;;;;;2.78;2.03;;;;;;;;;;5034412;28;20131;-74
2022/06/22 08:14:56;;;;;;;4.00;1.58;;;;;;;;;;5051411;28;20052;-74
2022/06/22 08:17:25;;;;;;;3.00;1.98;;;;;;;;;;5054829;28;20051;-74
2022/06/22 08:19:51;;;;;;;2.72;1.80;;;;;;;;;;5038109;28;20041;-74
2022/06/22 08:22:17;;;;;;;2.33;1.60;;;;;;;;;;5054916;28;20424;-73
2022/06/22 08:24:49;;;;;;;4.07;1.67;;;;;;;;;;5037907;28;20037;-73
2022/06/22 08:27:17;;;;;;;2.20;1.50;;;;;;;;;;5054544;28;20052;-73
2022/06/22 08:29:46;;;;;;;3.53;2.05;;;;;;;;;;5038077;28;20128;-73
2022/06/22 08:32:22;;;;;;;3.38;2.05;;;;;;;;;;5038293;28;20045;-73
2022/06/22 08:34:51;;;;;;;3.55;1.92;;;;;;;;;;5037733;28;20043;-73
2022/06/22 08:37:22;;;;;;;5.80;2.10;;;;;;;;;;5054302;28;20128;-73
2022/06/22 08:39:54;;;;;;;2.17;1.60;;;;;;;;;;5054311;28;20041;-73
2022/06/22 08:42:32;;;;;;;2.33;1.60;;;;;;;;;;5054518;28;20484;-73
2022/06/22 08:45:19;;;;;;;7.45;1.83;;;20.60;99.90;;;;;;5054135;28;20047;-73
2022/06/22 08:47:50;;;;;;;3.40;2.05;;;20.60;99.90;;;;;;5054084;28;20045;-74
2022/06/22 08:50:35;;;;;;;1.65;1.20;;;20.90;99.90;;;;;;5054032;28;20103;-73
2022/06/22 08:53:25;;;;;;;2.95;2.10;;;20.90;99.90;;;;;;5053817;28;20055;-73
2022/06/22 08:55:56;;;;;;;7.00;2.70;;;21.20;99.90;;;;;;5054167;28;20037;-73
2022/06/22 08:58:47;;;;;;;2.25;1.55;;;20.70;99.90;;;;;;5053859;28;20502;-74
2022/06/22 09:01:31;;;;;;;;;;;20.90;99.90;;;;;;5037556;28;20042;-73
2022/06/22 09:04:35;;;;;;;2.35;1.23;;;20.90;99.90;;;;;;5053677;28;19927;-80
2022/06/22 09:07:09;;;;;;;3.70;1.95;;;20.80;99.90;;;;;;5053545;28;20123;-79
2022/06/22 09:09:46;;;;;;;2.22;1.48;;;20.80;99.90;;;;;;5036930;28;20192;-79
2022/06/22 09:12:33;;;;;;;3.55;1.88;;;21.00;99.90;;;;;;5037018;28;20044;-79
2022/06/22 09:15:10;;;;;;;3.35;1.80;;;20.90;99.90;;;;;;5053524;28;20052;-80
2022/06/22 09:17:52;;;;;;;2.55;1.42;;;20.90;99.90;;;;;;5036914;28;20055;-80
2022/06/22 09:20:45;;;;;;;7.80;1.40;;;20.90;99.90;;;;;;5053576;28;20041;-80
2022/06/22 09:23:29;;;;;;;2.35;0.77;;;21.10;99.90;;;;;;5036795;28;20068;-80
2022/06/22 09:26:28;;;;;;;2.55;1.02;;;21.10;99.90;;;;;;5053284;28;20032;-80
2022/06/22 09:28:54;;;;;;;3.47;1.40;;;21.20;99.90;;;;;;5036682;28;20041;-79
2022/06/22 09:31:35;;;;;;;2.92;1.48;;;21.20;99.90;;;;;;5053330;28;20044;-79
2022/06/22 09:34:21;;;;;;;1.67;1.00;;;21.20;99.90;;;;;;5036685;28;20044;-79
2022/06/22 09:37:23;;;;;;;1.75;1.10;;;21.30;99.90;;;;;;5036460;28;20064;-79
2022/06/22 09:40:01;;;;;;;0.82;0.82;;;21.50;99.90;;;;;;5053097;28;20045;-78
2022/06/22 09:42:52;;;;;;;3.85;1.50;;;21.40;99.90;;;;;;5053362;28;20496;-77
2022/06/22 09:45:18;;;;;;;2.17;1.02;;;;;;;;;;5053116;28;20044;-81
2022/06/22 09:47:44;;;;;;;5.20;1.55;;;;;;;;;;5052955;28;20079;-81
2022/06/22 09:50:39;;;;;;;2.85;1.50;;;;;;;;;;5053044;28;20048;-79
2022/06/22 09:53:11;;;;;;;2.38;1.38;;;;;;;;;;4985140;28;20112;-82
2022/06/22 09:58:34;;;;;;;2.00;0.80;;;;;;;;;;5052773;28;20045;-79
2022/06/22 10:01:09;;;;;;;1.20;1.00;;;;;;;;;;5036149;28;20060;-75
2022/06/22 10:03:54;;;;;;;2.55;1.30;;;;;;;;;;5052761;28;20047;-77
2022/06/22 10:06:39;;;;;;;3.92;1.30;;;;;;;;;;5036022;28;20033;-79
2022/06/22 10:09:21;;;;;;;4.57;1.67;;;;;;;;;;5035935;28;20097;-82
2022/06/22 10:12:02;;;;;;;2.20;1.38;;;;;;;;;;5035923;28;20077;-81
2022/06/22 10:14:32;;;;;;;8.32;1.42;;;;;;;;;;5052812;28;20480;-81
2022/06/22 10:16:58;;;;;;;4.68;1.52;;;;;;;;;;5035811;28;20036;-81
2022/06/22 10:19:33;;;;;;;1.98;0.90;;;;;;;;;;5052501;28;20041;-81
2022/06/22 10:22:03;;;;;;;1.15;0.75;;;;;;;;;;5052384;28;20044;-81
2022/06/22 10:24:35;;;;;;;2.78;0.98;;;;;;;;;;5052769;28;20079;-81
2022/06/22 10:27:07;;;;;;;2.92;1.42;;;;;;;;;;5035985;28;20496;-81
2022/06/22 10:29:52;;;;;;;3.00;1.83;;;;;;;;;;5052442;28;20041;-82
2022/06/22 10:32:28;;;;;;;2.88;1.42;;;;;;;;;;5035986;28;20048;-82
2022/06/22 10:35:17;;;;;;;4.63;1.73;;;;;;;;;;5035851;28;20120;-82
2022/06/22 10:37:49;;;;;;;2.75;1.40;;;;;;;;;;5033783;28;20088;-81
2022/06/22 10:46:23;;;;;;;7.90;1.60;;;;;;;;;;5052042;28;20094;-73
2022/06/22 10:49:15;;;;;;;2.70;1.70;;;21.80;99.90;;;;;;5051806;28;20036;-73
2022/06/22 10:51:48;;;;;;;1.92;1.35;;;;;;;;;;5029568;28;20057;-73
2022/06/22 10:54:26;;;;;;;4.75;1.95;;;;;;;;;;5052011;28;20392;-81
2022/06/22 10:57:27;;;;;;;2.13;1.42;;;21.70;99.90;;;;;;5051931;28;20076;-73
2022/06/22 10:59:53;;;;;;;;;;;;;;;;;;5052141;28;20041;-73
2022/06/22 11:02:22;;;;;;;6.05;2.20;;;;;;;;;;5035103;28;19924;-73
2022/06/22 11:04:51;;;;;;;3.33;1.90;;;;;;;;;;5051946;28;20091;-73
2022/06/22 11:07:40;;;;;;;3.65;1.77;;;;;;;;;;5051611;28;20045;-73
2022/06/22 11:10:22;;;;;;;3.95;1.90;;;;;;;;;;5051024;28;20489;-73
2022/06/22 11:13:03;;;;;;;4.10;1.98;;;;;;;;;;5035182;28;20431;-71
2022/06/22 11:15:44;;;;;;;2.90;1.70;;;;;;;;;;5051543;28;20053;-74
2022/06/22 11:18:26;;;;;;;6.65;2.67;;;;;;;;;;5034861;28;20044;-73
2022/06/22 11:21:02;;;;;;;5.00;2.03;;;;;;;;;;5051732;28;20090;-73
2022/06/22 11:23:46;;;;;;;3.58;1.95;;;21.90;99.90;;;;;;5051368;28;20065;-73
2022/06/22 11:32:24;;;;;;;5.57;2.42;;;;;;;;;;5051717;28;20041;-73
2022/06/22 11:34:50;;;;;;;4.03;1.90;;;;;;;;;;5051283;28;20040;-72
2022/06/22 11:37:38;;;;;;;4.65;2.30;;;;;;;;;;5051088;28;20049;-72
2022/06/22 11:40:13;;;;;;;5.13;2.05;;;;;;;;;;5051307;28;20048;-73
2022/06/22 11:43:03;;;;;;;2.95;2.08;;;;;;;;;;5051203;28;20151;-73
2022/06/22 11:45:50;;;;;;;5.63;1.77;;;;;;;;;;5023775;28;20056;-72
2022/06/22 11:48:28;;;;;;;3.17;2.00;;;;;;;;;;5034643;28;20136;-73
2022/06/22 11:51:02;;;;;;;5.60;1.65;;;;;;;;;;5036670;28;20045;-73
2022/06/22 11:53:28;;;;;;;3.13;1.85;;;;;;;;;;5055425;28;20040;-73
2022/06/22 11:55:58;;;;;;;3.47;1.88;;;;;;;;;;5038582;28;20045;-73
2022/06/22 11:58:31;;;;;;;3.08;2.15;;;;;;;;;;5055213;28;20080;-73
2022/06/22 12:01:00;;;;;;;3.20;1.70;;;;;;;;;;5055268;28;20053;-73
2022/06/22 12:03:26;;;;;;;5.53;2.17;;;;;;;;;;5054890;28;20048;-73
2022/06/22 12:06:02;;;;;;;3.72;1.92;;;;;;;;;;5038113;28;20056;-73
2022/06/22 12:08:38;;;;;;;3.33;1.65;;;;;;;;;;5055052;28;20400;-73
2022/06/22 12:11:10;;;;;;;3.15;1.45;;;;;;;;;;5054883;28;20032;-73
2022/06/22 12:16:36;;;;;;;4.07;1.70;;;;;;;;;;5054905;28;20087;-86
2022/06/22 12:19:07;;;;;;;2.78;1.73;;;23.10;99.90;;;;;;5054751;28;20041;-87
2022/06/22 12:21:58;;;;;;;2.85;1.65;;;23.20;99.90;;;;;;5054814;28;20054;-87
2022/06/22 12:24:54;;;;;;;3.78;1.95;;;23.20;99.90;;;;;;5038458;28;20492;-85
2022/06/22 12:27:26;;;;;;;2.97;1.80;;;23.20;99.90;;;;;;5038006;28;20056;-84
2022/06/22 12:30:28;;;;;;;4.10;1.95;;;23.20;99.90;;;;;;5054579;28;20068;-84
2022/06/22 12:33:08;;;;;;;2.72;1.70;;;23.20;99.90;;;;;;5054549;28;20045;-84
2022/06/22 12:35:47;;;;;;;3.50;1.80;;;23.20;99.90;;;;;;5038301;28;20087;-84
2022/06/22 12:38:22;;;;;;;4.53;1.63;;;23.10;99.90;;;;;;5054182;28;20104;-84
2022/06/22 12:41:22;;;;;;;3.25;1.60;;;23.10;99.90;;;;;;5037686;28;20043;-83
2022/06/22 12:43:48;;;;;;;3.72;1.90;;;23.10;99.90;;;;;;5054355;28;20048;-83
2022/06/22 12:46:35;;;;;;;3.72;1.63;;;23.10;99.90;;;;;;5037693;28;20112;-84
2022/06/22 12:49:28;;;;;;;3.42;2.10;;;23.00;99.90;;;;;;5054186;28;20044;-82
2022/06/22 12:52:26;;;;;;;4.20;1.70;;;23.20;99.90;;;;;;5054032;28;20041;-81
2022/06/22 12:54:57;;;;;;;6.32;1.90;;;23.50;99.90;;;;;;5042703;28;20072;-81
2022/06/22 12:57:34;;;;;;;3.28;1.33;;;23.20;99.90;;;;;;5053954;28;20044;-82
2022/06/22 13:00:07;;;;;;;3.83;1.52;;;23.50;99.90;;;;;;5037495;28;20048;-81
2022/06/22 13:02:36;;;;;;;2.80;1.83;;;23.50;99.90;;;;;;5036204;28;20384;-81
2022/06/22 13:05:34;;;;;;;2.78;1.30;;;23.30;99.90;;;;;;5037560;28;20095;-82
2022/06/22 13:08:10;;;;;;;2.97;1.73;;;23.50;99.90;;;;;;5053561;28;20053;-82
2022/06/22 13:10:43;;;;;;;4.10;2.13;;;23.70;99.90;;;;;;5053862;28;20124;-82
2022/06/22 13:13:22;;;;;;;2.97;2.13;;;23.40;99.90;;;;;;5054046;28;20511;-83
2022/06/22 13:15:56;;;;;;;3.93;2.00;;;23.40;99.90;;;;;;5037060;28;20047;-77
2022/06/22 13:18:24;;;;;;;3.88;2.00;;;23.50;99.90;;;;;;5037286;28;20337;-83
2022/06/22 13:21:04;;;;;;;2.08;1.60;;;23.70;99.90;;;;;;5053535;28;20063;-84
2022/06/22 13:23:55;;;;;;;2.65;1.50;;;23.70;99.90;;;;;;5053604;28;20056;-83
2022/06/22 13:26:59;;;;;;;2.88;1.95;;;23.80;99.90;;;;;;5036992;28;20079;-84
2022/06/22 13:29:50;;;;;;;3.63;2.05;;;23.80;99.90;;;;;;5030720;28;20053;-84
2022/06/22 13:32:17;;;;;;;3.45;2.20;;;23.80;99.90;;;;;;5036491;28;20124;-82
2022/06/22 13:34:46;;;;;;;3.42;2.13;;;24.10;99.90;;;;;;5053390;28;20067;-83
2022/06/22 13:37:49;;;;;;;5.45;1.42;;;24.20;99.90;;;;;;5036474;28;20057;-83
2022/06/22 13:40:49;;;;;;;2.83;1.70;;;24.30;99.90;;;;;;5036900;28;20085;-87
2022/06/22 13:43:27;;;;;;;8.48;1.90;;;24.20;99.90;;;;;;5030370;28;20060;-88
2022/06/22 13:45:58;;;;;;;2.58;1.45;;;24.40;99.90;;;;;;5053481;28;20484;-81
2022/06/22 13:48:40;;;;;;;3.83;1.85;;;24.40;99.90;;;;;;5036907;28;20105;-85
2022/06/22 13:51:24;;;;;;;3.60;2.08;;;24.70;99.90;;;;;;5053354;28;20468;-85
2022/06/22 13:53:58;;;;;;;3.17;2.00;;;24.50;99.90;;;;;;5036738;28;20041;-84
2022/06/22 13:56:48;;;;;;;5.13;2.53;;;24.70;99.90;;;;;;5052894;28;20124;-73
2022/06/22 13:59:40;;;;;;;4.93;2.08;;;24.60;99.90;;;;;;5036174;28;20048;-73
2022/06/22 14:02:35;;;;;;;5.53;1.98;;;24.70;99.90;;;;;;5046224;28;20091;-72
2022/06/22 14:05:33;;;;;;;3.38;1.83;;;24.60;99.90;;;;;;5040325;28;20450;-73
2022/06/22 14:08:10;;;;;;;3.00;1.70;;;24.80;99.90;;;;;;5036350;28;20476;-79
2022/06/22 14:10:43;;;;;;;3.25;2.35;;;24.90;99.90;;;;;;5052829;28;20052;-80
2022/06/22 14:13:25;;;;;;;4.43;1.88;;;24.90;99.90;;;;;;5052498;28;20447;-79
2022/06/22 14:16:13;;;;;;;3.13;2.08;;;24.90;99.90;;;;;;5035840;28;20049;-78
2022/06/22 14:18:57;;;;;;;3.90;2.47;;;24.90;99.90;;;;;;5052370;28;20044;-73
2022/06/22 14:21:41;;;;;;;2.67;1.80;;;24.90;99.90;;;;;;5052448;28;20045;-73
2022/06/22 14:24:36;;;;;;;6.32;2.22;;;24.70;99.90;;;;;;5052596;28;20491;-73
2022/06/22 14:27:39;;;;;;;3.13;2.17;;;24.70;99.90;;;;;;5046518;28;20411;-73
2022/06/22 14:30:22;;;;;;;3.83;1.88;;;24.90;99.90;;;;;;5052149;28;20123;-73
2022/06/22 14:33:11;;;;;;;3.95;1.90;;;25.00;99.90;;;;;;5052511;28;20032;-78
2022/06/22 14:35:53;;;;;;;2.72;1.75;;;25.40;99.90;;;;;;5052028;28;20044;-78